09:37
Airports
History
Links
Donate
Help keep this website running!
PayPal
Bitcoin
This page is community maintained. The information is intended for PC simulator navigation or reference.
Always use approved charts for navigation.
CPS2
Elmhirst Resort
Elmhirst Resort (CPS2)
Keene, Ontario, Canada
(C)
Lat/Lng:44° 15' 3.35" N / 78° 7' 0.96" W
44.250931 / -78.116933
Elevation:650'ft / 198mMSL
ID / ICAO:CPS2
Runways:1
Longest:06-24
Grass 853m / 2,799ft
Controlled:Yes
Nearby Weather09:00 GMT 2017-10-23
Nearby weather at CYPQ, Peterborough located 12.3 nautical miles from CPS2
Altimeter: 30.08
Visibility: 9.0 statute miles
Wind: 2 knots (from 360°)
Temp: 5°c / 41°f
Humidity: 100.0%

METAR: CYPQ 230900Z AUTO 36002KT 9SM CLR 05/05 A3008 RMK SLP191

(Powered by phpweather)
Airport Radio Frequencies
Elmhirst Unicom: 122.8
Nearby VORs <50NM
Nearby NDBs
Runway 06 / 24
Dimensions:853 x 14.9m 2799' x 49'ft
Surface:Grass
Runway 06 [A]Runway 24 [B]
Heading:048°TH 228°TH
Lat:
Lng:
44° 14' 54.1"N
78° 7' 15.3"W
44° 15' 12.6"N
78° 6' 46.62"W
User Notes and Comments
44° 15' 3.35" N / 78° 7' 0.96" W
Distance To
Airport ID:
Nearby Airports
(U) Peterborough 12.3 NM
CYPQ ( WX ) W 263°
(R) Trenton 30.6 NM
CYTR ( WX ) ESE 107°
(U) Lindsay 33.9 NM
NF4 WNW 283°
(C) Mountain View 40.6 NM
PZ3 ESE 107°
(C) Oshawa 44.8 NM
CYOO WSW 239°
(U) MOHAWK 50.1 NM
CPU6 E 95°
4 Baldwin 60.4 NM
PB9 W 271°
VFR Chart
Flight Planning at SkyVector.com